sensor_id;sensor_type;location;lat;lon;timestamp;pressure;altitude;pressure_sealevel;temperature;humidity
56582;BME280;42463;52.214;21.238;2023-09-12T00:00:22;100069.02;;;20.17;64.41
56582;BME280;42463;52.214;21.238;2023-09-12T00:02:48;100070.36;;;20.18;64.36
56582;BME280;42463;52.214;21.238;2023-09-12T00:04:54;100069.04;;;20.18;64.34
56582;BME280;42463;52.214;21.238;2023-09-12T00:07:00;100067.36;;;20.17;64.38
56582;BME280;42463;52.214;21.238;2023-09-12T00:09:06;100067.59;;;20.17;64.53
56582;BME280;42463;52.214;21.238;2023-09-12T00:11:13;100064.41;;;20.17;64.56
56582;BME280;42463;52.214;21.238;2023-09-12T00:13:19;100065.84;;;20.15;64.43
56582;BME280;42463;52.214;21.238;2023-09-12T00:15:24;100062.63;;;20.14;64.44
56582;BME280;42463;52.214;21.238;2023-09-12T00:17:30;100064.52;;;20.12;64.48
56582;BME280;42463;52.214;21.238;2023-09-12T00:19:36;100068.60;;;20.10;64.53
56582;BME280;42463;52.214;21.238;2023-09-12T00:21:41;100069.44;;;20.07;64.79
56582;BME280;42463;52.214;21.238;2023-09-12T00:23:47;100069.55;;;20.06;64.84
56582;BME280;42463;52.214;21.238;2023-09-12T00:25:53;100067.19;;;20.04;64.89
56582;BME280;42463;52.214;21.238;2023-09-12T00:27:59;100069.33;;;20.03;64.91
56582;BME280;42463;52.214;21.238;2023-09-12T00:30:07;100067.02;;;20.02;64.98
56582;BME280;42463;52.214;21.238;2023-09-12T00:32:13;100071.37;;;20.02;64.96
56582;BME280;42463;52.214;21.238;2023-09-12T00:34:19;100067.64;;;20.02;65.08
56582;BME280;42463;52.214;21.238;2023-09-12T00:36:25;100066.54;;;20.02;65.26
56582;BME280;42463;52.214;21.238;2023-09-12T00:38:31;100065.27;;;20.04;65.06
56582;BME280;42463;52.214;21.238;2023-09-12T00:40:36;100067.86;;;20.05;65.03
56582;BME280;42463;52.214;21.238;2023-09-12T00:42:42;100068.54;;;20.06;65.12
56582;BME280;42463;52.214;21.238;2023-09-12T00:44:48;100070.80;;;20.08;65.10
56582;BME280;42463;52.214;21.238;2023-09-12T00:46:54;100067.95;;;20.07;65.08
56582;BME280;42463;52.214;21.238;2023-09-12T00:49:02;100068.35;;;20.06;65.14
56582;BME280;42463;52.214;21.238;2023-09-12T00:51:10;100067.23;;;20.03;65.15
56582;BME280;42463;52.214;21.238;2023-09-12T00:53:16;100065.86;;;20.01;65.29
56582;BME280;42463;52.214;21.238;2023-09-12T00:55:22;100064.75;;;19.99;65.18
56582;BME280;42463;52.214;21.238;2023-09-12T00:57:27;100062.66;;;19.98;65.29
56582;BME280;42463;52.214;21.238;2023-09-12T00:59:34;100064.41;;;19.97;65.35
56582;BME280;42463;52.214;21.238;2023-09-12T01:03:55;100065.80;;;19.93;65.21
56582;BME280;42463;52.214;21.238;2023-09-12T01:06:02;100065.70;;;19.91;65.25
56582;BME280;42463;52.214;21.238;2023-09-12T01:08:09;100063.12;;;19.89;65.40
56582;BME280;42463;52.214;21.238;2023-09-12T01:10:15;100061.46;;;19.87;65.37
56582;BME280;42463;52.214;21.238;2023-09-12T01:12:21;100062.86;;;19.85;65.46
56582;BME280;42463;52.214;21.238;2023-09-12T01:14:27;100062.34;;;19.84;65.57
56582;BME280;42463;52.214;21.238;2023-09-12T01:16:33;100059.89;;;19.84;65.48
56582;BME280;42463;52.214;21.238;2023-09-12T01:18:39;100058.23;;;19.84;65.35
56582;BME280;42463;52.214;21.238;2023-09-12T01:20:57;100053.23;;;19.83;65.21
56582;BME280;42463;52.214;21.238;2023-09-12T01:23:23;100055.90;;;19.81;65.27
56582;BME280;42463;52.214;21.238;2023-09-12T01:25:48;100056.27;;;19.79;65.02
56582;BME280;42463;52.214;21.238;2023-09-12T01:28:03;100057.11;;;19.76;65.05
56582;BME280;42463;52.214;21.238;2023-09-12T01:30:11;100056.91;;;19.76;65.12
56582;BME280;42463;52.214;21.238;2023-09-12T01:32:19;100056.10;;;19.73;65.32
56582;BME280;42463;52.214;21.238;2023-09-12T01:34:25;100058.52;;;19.71;65.44
56582;BME280;42463;52.214;21.238;2023-09-12T01:36:31;100063.45;;;19.69;65.74
56582;BME280;42463;52.214;21.238;2023-09-12T01:38:37;100062.05;;;19.68;65.62
56582;BME280;42463;52.214;21.238;2023-09-12T01:40:47;100061.29;;;19.66;65.97
56582;BME280;42463;52.214;21.238;2023-09-12T01:42:54;100063.88;;;19.66;65.76
56582;BME280;42463;52.214;21.238;2023-09-12T01:45:02;100057.23;;;19.65;65.59
56582;BME280;42463;52.214;21.238;2023-09-12T01:47:10;100057.14;;;19.65;65.98
56582;BME280;42463;52.214;21.238;2023-09-12T01:49:17;100057.84;;;19.67;65.88
56582;BME280;42463;52.214;21.238;2023-09-12T01:51:25;100055.13;;;19.68;65.85
56582;BME280;42463;52.214;21.238;2023-09-12T01:53:33;100056.39;;;19.68;65.83
56582;BME280;42463;52.214;21.238;2023-09-12T01:55:39;100053.64;;;19.66;65.82
56582;BME280;42463;52.214;21.238;2023-09-12T01:57:45;100054.70;;;19.64;65.94
56582;BME280;42463;52.214;21.238;2023-09-12T01:59:52;100055.71;;;19.61;65.88
56582;BME280;42463;52.214;21.238;2023-09-12T02:01:58;100049.50;;;19.60;65.94
56582;BME280;42463;52.214;21.238;2023-09-12T02:04:03;100053.54;;;19.57;65.95
56582;BME280;42463;52.214;21.238;2023-09-12T02:06:13;100053.11;;;19.57;66.13
56582;BME280;42463;52.214;21.238;2023-09-12T02:08:19;100053.83;;;19.57;66.18
56582;BME280;42463;52.214;21.238;2023-09-12T02:10:25;100053.67;;;19.58;66.23
56582;BME280;42463;52.214;21.238;2023-09-12T02:12:32;100047.90;;;19.59;66.33
56582;BME280;42463;52.214;21.238;2023-09-12T02:14:38;100052.05;;;19.59;66.30
56582;BME280;42463;52.214;21.238;2023-09-12T02:16:44;100049.39;;;19.58;66.40
56582;BME280;42463;52.214;21.238;2023-09-12T02:18:50;100054.19;;;19.56;66.49
56582;BME280;42463;52.214;21.238;2023-09-12T02:20:55;100054.48;;;19.54;66.41
56582;BME280;42463;52.214;21.238;2023-09-12T02:23:01;100056.86;;;19.53;66.59
56582;BME280;42463;52.214;21.238;2023-09-12T02:25:08;100057.70;;;19.52;66.84
56582;BME280;42463;52.214;21.238;2023-09-12T02:27:14;100060.76;;;19.51;66.63
56582;BME280;42463;52.214;21.238;2023-09-12T02:29:20;100058.48;;;19.49;66.76
56582;BME280;42463;52.214;21.238;2023-09-12T02:31:26;100057.13;;;19.49;67.07
56582;BME280;42463;52.214;21.238;2023-09-12T02:33:31;100059.88;;;19.49;67.00
56582;BME280;42463;52.214;21.238;2023-09-12T02:35:37;100059.13;;;19.48;67.17
56582;BME280;42463;52.214;21.238;2023-09-12T02:37:43;100060.10;;;19.49;66.95
56582;BME280;42463;52.214;21.238;2023-09-12T02:39:49;100061.79;;;19.49;66.89
56582;BME280;42463;52.214;21.238;2023-09-12T02:41:55;100060.69;;;19.49;66.74
56582;BME280;42463;52.214;21.238;2023-09-12T02:44:01;100063.09;;;19.50;66.86
56582;BME280;42463;52.214;21.238;2023-09-12T02:46:07;100060.56;;;19.50;66.76
56582;BME280;42463;52.214;21.238;2023-09-12T02:48:13;100064.38;;;19.49;66.74
56582;BME280;42463;52.214;21.238;2023-09-12T02:50:19;100068.36;;;19.47;66.69
56582;BME280;42463;52.214;21.238;2023-09-12T02:52:25;100065.52;;;19.45;66.75
56582;BME280;42463;52.214;21.238;2023-09-12T02:54:30;100068.67;;;19.43;67.00
56582;BME280;42463;52.214;21.238;2023-09-12T02:56:36;100070.88;;;19.42;66.96
56582;BME280;42463;52.214;21.238;2023-09-12T02:58:41;100073.63;;;19.40;67.09
56582;BME280;42463;52.214;21.238;2023-09-12T03:00:47;100071.00;;;19.38;67.24
56582;BME280;42463;52.214;21.238;2023-09-12T03:02:54;100068.66;;;19.36;67.35
56582;BME280;42463;52.214;21.238;2023-09-12T03:05:00;100076.70;;;19.35;67.46
56582;BME280;42463;52.214;21.238;2023-09-12T03:07:06;100072.45;;;19.33;67.43
56582;BME280;42463;52.214;21.238;2023-09-12T03:09:14;100074.16;;;19.33;67.39
56582;BME280;42463;52.214;21.238;2023-09-12T03:11:21;100076.02;;;19.32;67.28
56582;BME280;42463;52.214;21.238;2023-09-12T03:13:27;100075.23;;;19.31;67.39
56582;BME280;42463;52.214;21.238;2023-09-12T03:15:38;100075.65;;;19.29;67.27
56582;BME280;42463;52.214;21.238;2023-09-12T03:17:44;100075.52;;;19.28;67.34
56582;BME280;42463;52.214;21.238;2023-09-12T03:19:50;100076.31;;;19.27;67.37
56582;BME280;42463;52.214;21.238;2023-09-12T03:21:56;100074.15;;;19.25;67.01
56582;BME280;42463;52.214;21.238;2023-09-12T03:24:02;100074.88;;;19.22;67.17
56582;BME280;42463;52.214;21.238;2023-09-12T03:26:08;100071.81;;;19.20;67.21
56582;BME280;42463;52.214;21.238;2023-09-12T03:28:15;100069.19;;;19.20;66.97
56582;BME280;42463;52.214;21.238;2023-09-12T03:30:22;100072.88;;;19.19;66.96
56582;BME280;42463;52.214;21.238;2023-09-12T03:32:28;100071.32;;;19.18;66.89
56582;BME280;42463;52.214;21.238;2023-09-12T03:34:36;100073.58;;;19.16;66.67
56582;BME280;42463;52.214;21.238;2023-09-12T03:36:42;100076.13;;;19.13;66.84
56582;BME280;42463;52.214;21.238;2023-09-12T03:38:48;100076.77;;;19.12;66.83
56582;BME280;42463;52.214;21.238;2023-09-12T03:40:54;100077.13;;;19.11;66.80
56582;BME280;42463;52.214;21.238;2023-09-12T03:43:00;100079.74;;;19.10;66.83
56582;BME280;42463;52.214;21.238;2023-09-12T03:45:08;100081.03;;;19.09;66.82
56582;BME280;42463;52.214;21.238;2023-09-12T03:47:14;100084.64;;;19.07;66.86
56582;BME280;42463;52.214;21.238;2023-09-12T03:49:19;100085.65;;;19.07;66.82
56582;BME280;42463;52.214;21.238;2023-09-12T03:51:26;100087.36;;;19.05;66.76
56582;BME280;42463;52.214;21.238;2023-09-12T03:53:32;100087.16;;;19.03;66.79
56582;BME280;42463;52.214;21.238;2023-09-12T03:55:38;100089.07;;;19.03;66.65
56582;BME280;42463;52.214;21.238;2023-09-12T03:57:44;100089.48;;;19.02;66.69
56582;BME280;42463;52.214;21.238;2023-09-12T03:59:50;100085.73;;;19.00;66.78
56582;BME280;42463;52.214;21.238;2023-09-12T04:01:57;100086.21;;;18.99;66.79
56582;BME280;42463;52.214;21.238;2023-09-12T04:04:04;100084.82;;;19.00;66.84
56582;BME280;42463;52.214;21.238;2023-09-12T04:06:09;100084.08;;;18.99;66.79
56582;BME280;42463;52.214;21.238;2023-09-12T04:08:16;100090.73;;;18.99;66.63
56582;BME280;42463;52.214;21.238;2023-09-12T04:10:22;100086.48;;;18.97;66.66
56582;BME280;42463;52.214;21.238;2023-09-12T04:12:28;100087.91;;;18.96;66.70
56582;BME280;42463;52.214;21.238;2023-09-12T04:14:34;100086.22;;;18.93;66.70
56582;BME280;42463;52.214;21.238;2023-09-12T04:16:40;100084.60;;;18.90;66.61
56582;BME280;42463;52.214;21.238;2023-09-12T04:18:46;100084.95;;;18.90;66.76
56582;BME280;42463;52.214;21.238;2023-09-12T04:20:52;100089.52;;;18.90;66.85
56582;BME280;42463;52.214;21.238;2023-09-12T04:23:02;100084.46;;;18.89;66.93
56582;BME280;42463;52.214;21.238;2023-09-12T04:25:09;100083.88;;;18.89;66.97
56582;BME280;42463;52.214;21.238;2023-09-12T04:27:15;100085.59;;;18.88;67.02
56582;BME280;42463;52.214;21.238;2023-09-12T04:29:23;100082.96;;;18.88;67.03
56582;BME280;42463;52.214;21.238;2023-09-12T04:31:29;100082.97;;;18.88;67.02
56582;BME280;42463;52.214;21.238;2023-09-12T04:33:35;100083.90;;;18.86;66.80
56582;BME280;42463;52.214;21.238;2023-09-12T04:35:43;100085.86;;;18.84;66.84
56582;BME280;42463;52.214;21.238;2023-09-12T04:37:49;100091.81;;;18.84;67.09
56582;BME280;42463;52.214;21.238;2023-09-12T04:39:55;100093.48;;;18.83;67.13
56582;BME280;42463;52.214;21.238;2023-09-12T04:42:01;100095.52;;;18.83;67.31
56582;BME280;42463;52.214;21.238;2023-09-12T04:44:08;100095.50;;;18.84;67.42
56582;BME280;42463;52.214;21.238;2023-09-12T04:46:14;100098.98;;;18.85;67.57
56582;BME280;42463;52.214;21.238;2023-09-12T04:48:20;100096.02;;;18.85;67.74
56582;BME280;42463;52.214;21.238;2023-09-12T04:50:26;100097.61;;;18.87;68.21
56582;BME280;42463;52.214;21.238;2023-09-12T04:52:32;100098.27;;;18.91;68.25
56582;BME280;42463;52.214;21.238;2023-09-12T04:54:37;100093.51;;;18.94;68.26
56582;BME280;42463;52.214;21.238;2023-09-12T04:56:44;100097.25;;;18.96;68.10
56582;BME280;42463;52.214;21.238;2023-09-12T04:58:50;100095.90;;;18.97;68.17
56582;BME280;42463;52.214;21.238;2023-09-12T05:00:57;100096.49;;;18.99;68.56
56582;BME280;42463;52.214;21.238;2023-09-12T05:03:04;100100.65;;;19.02;68.79
56582;BME280;42463;52.214;21.238;2023-09-12T05:05:09;100100.42;;;19.04;69.00
56582;BME280;42463;52.214;21.238;2023-09-12T05:07:16;100100.40;;;19.05;69.02
56582;BME280;42463;52.214;21.238;2023-09-12T05:09:21;100102.02;;;19.06;69.06
56582;BME280;42463;52.214;21.238;2023-09-12T05:11:27;100100.59;;;19.07;69.14
56582;BME280;42463;52.214;21.238;2023-09-12T05:13:33;100101.05;;;19.09;69.30
56582;BME280;42463;52.214;21.238;2023-09-12T05:15:40;100103.29;;;19.11;69.52
56582;BME280;42463;52.214;21.238;2023-09-12T05:17:46;100103.30;;;19.15;69.65
56582;BME280;42463;52.214;21.238;2023-09-12T05:19:52;100103.45;;;19.18;69.63
56582;BME280;42463;52.214;21.238;2023-09-12T05:21:58;100102.96;;;19.21;69.72
56582;BME280;42463;52.214;21.238;2023-09-12T05:24:04;100106.08;;;19.25;69.78
56582;BME280;42463;52.214;21.238;2023-09-12T05:26:10;100105.94;;;19.30;69.94
56582;BME280;42463;52.214;21.238;2023-09-12T05:28:16;100106.79;;;19.33;69.94
56582;BME280;42463;52.214;21.238;2023-09-12T05:30:27;100111.52;;;19.37;70.11
56582;BME280;42463;52.214;21.238;2023-09-12T05:32:33;100113.56;;;19.40;70.23
56582;BME280;42463;52.214;21.238;2023-09-12T05:34:39;100112.66;;;19.43;70.17
56582;BME280;42463;52.214;21.238;2023-09-12T05:36:45;100113.66;;;19.45;70.55
56582;BME280;42463;52.214;21.238;2023-09-12T05:38:52;100118.44;;;19.50;70.53
56582;BME280;42463;52.214;21.238;2023-09-12T05:40:58;100122.07;;;19.55;70.71
56582;BME280;42463;52.214;21.238;2023-09-12T05:43:04;100120.04;;;19.60;70.71
56582;BME280;42463;52.214;21.238;2023-09-12T05:45:11;100121.56;;;19.66;70.75
56582;BME280;42463;52.214;21.238;2023-09-12T05:47:17;100116.78;;;19.71;70.72
56582;BME280;42463;52.214;21.238;2023-09-12T05:49:23;100113.76;;;19.77;70.87
56582;BME280;42463;52.214;21.238;2023-09-12T05:51:28;100116.81;;;19.83;70.96
56582;BME280;42463;52.214;21.238;2023-09-12T05:53:34;100115.52;;;19.91;70.96
56582;BME280;42463;52.214;21.238;2023-09-12T05:55:40;100115.23;;;19.99;71.00
56582;BME280;42463;52.214;21.238;2023-09-12T05:57:46;100111.76;;;20.05;70.74
56582;BME280;42463;52.214;21.238;2023-09-12T05:59:56;100112.57;;;20.11;70.87
56582;BME280;42463;52.214;21.238;2023-09-12T06:02:04;100116.74;;;20.17;70.71
56582;BME280;42463;52.214;21.238;2023-09-12T06:04:12;100116.48;;;20.21;70.76
56582;BME280;42463;52.214;21.238;2023-09-12T06:06:19;100116.61;;;20.26;70.67
56582;BME280;42463;52.214;21.238;2023-09-12T06:08:26;100115.10;;;20.29;70.79
56582;BME280;42463;52.214;21.238;2023-09-12T06:10:32;100120.51;;;20.34;70.71
56582;BME280;42463;52.214;21.238;2023-09-12T06:12:39;100122.42;;;20.40;70.61
56582;BME280;42463;52.214;21.238;2023-09-12T06:14:45;100121.03;;;20.46;70.67
56582;BME280;42463;52.214;21.238;2023-09-12T06:16:51;100118.11;;;20.51;70.59
56582;BME280;42463;52.214;21.238;2023-09-12T06:18:58;100119.30;;;20.56;70.56
56582;BME280;42463;52.214;21.238;2023-09-12T06:21:04;100120.13;;;20.62;70.49
56582;BME280;42463;52.214;21.238;2023-09-12T06:23:13;100120.78;;;20.68;70.43
56582;BME280;42463;52.214;21.238;2023-09-12T06:25:19;100120.02;;;20.75;70.46
56582;BME280;42463;52.214;21.238;2023-09-12T06:27:24;100125.34;;;20.81;70.27
56582;BME280;42463;52.214;21.238;2023-09-12T06:29:30;100125.77;;;20.88;70.27
56582;BME280;42463;52.214;21.238;2023-09-12T06:31:36;100128.96;;;20.94;70.07
56582;BME280;42463;52.214;21.238;2023-09-12T06:33:42;100131.30;;;21.01;70.10
56582;BME280;42463;52.214;21.238;2023-09-12T06:35:50;100124.52;;;21.09;70.00
56582;BME280;42463;52.214;21.238;2023-09-12T06:37:57;100132.34;;;21.16;69.98
56582;BME280;42463;52.214;21.238;2023-09-12T06:40:04;100135.92;;;21.25;69.71
56582;BME280;42463;52.214;21.238;2023-09-12T06:42:11;100135.82;;;21.32;69.74
56582;BME280;42463;52.214;21.238;2023-09-12T06:44:17;100133.61;;;21.40;69.73
56582;BME280;42463;52.214;21.238;2023-09-12T06:46:23;100134.92;;;21.47;69.52
56582;BME280;42463;52.214;21.238;2023-09-12T06:48:30;100133.45;;;21.55;69.31
56582;BME280;42463;52.214;21.238;2023-09-12T06:50:37;100131.31;;;21.63;69.03
56582;BME280;42463;52.214;21.238;2023-09-12T06:52:43;100133.92;;;21.72;68.54
56582;BME280;42463;52.214;21.238;2023-09-12T06:54:49;100127.14;;;21.78;68.22
56582;BME280;42463;52.214;21.238;2023-09-12T06:56:55;100129.45;;;21.86;67.76
56582;BME280;42463;52.214;21.238;2023-09-12T06:59:01;100131.34;;;21.94;67.77
56582;BME280;42463;52.214;21.238;2023-09-12T07:01:07;100128.79;;;22.02;67.37
56582;BME280;42463;52.214;21.238;2023-09-12T07:03:13;100129.27;;;22.10;67.10
56582;BME280;42463;52.214;21.238;2023-09-12T07:05:19;100131.48;;;22.19;67.09
56582;BME280;42463;52.214;21.238;2023-09-12T07:07:26;100137.91;;;22.28;66.93
56582;BME280;42463;52.214;21.238;2023-09-12T07:09:32;100135.91;;;22.36;66.91
56582;BME280;42463;52.214;21.238;2023-09-12T07:11:38;100136.59;;;22.44;66.82
56582;BME280;42463;52.214;21.238;2023-09-12T07:13:44;100140.27;;;22.52;66.92
56582;BME280;42463;52.214;21.238;2023-09-12T07:15:51;100142.71;;;22.61;66.53
56582;BME280;42463;52.214;21.238;2023-09-12T07:17:57;100140.48;;;22.69;65.95
56582;BME280;42463;52.214;21.238;2023-09-12T07:20:05;100141.71;;;22.78;65.54
56582;BME280;42463;52.214;21.238;2023-09-12T07:22:17;100138.19;;;22.84;65.18
56582;BME280;42463;52.214;21.238;2023-09-12T07:24:26;100144.54;;;22.91;65.13
56582;BME280;42463;52.214;21.238;2023-09-12T07:26:32;100142.64;;;23.01;65.02
56582;BME280;42463;52.214;21.238;2023-09-12T07:28:38;100139.95;;;23.10;64.80
56582;BME280;42463;52.214;21.238;2023-09-12T07:30:46;100140.90;;;23.20;64.68
56582;BME280;42463;52.214;21.238;2023-09-12T07:32:53;100138.27;;;23.29;64.48
56582;BME280;42463;52.214;21.238;2023-09-12T07:34:59;100138.94;;;23.37;64.14
56582;BME280;42463;52.214;21.238;2023-09-12T07:37:05;100137.80;;;23.46;63.71
56582;BME280;42463;52.214;21.238;2023-09-12T07:39:11;100137.36;;;23.57;63.72
56582;BME280;42463;52.214;21.238;2023-09-12T07:41:17;100139.52;;;23.65;63.31
56582;BME280;42463;52.214;21.238;2023-09-12T07:43:23;100138.86;;;23.72;62.83
56582;BME280;42463;52.214;21.238;2023-09-12T07:45:29;100138.38;;;23.77;62.90
56582;BME280;42463;52.214;21.238;2023-09-12T07:47:36;100137.84;;;23.83;62.45
56582;BME280;42463;52.214;21.238;2023-09-12T07:49:42;100141.10;;;23.88;61.93
56582;BME280;42463;52.214;21.238;2023-09-12T07:51:47;100139.52;;;23.96;61.74
56582;BME280;42463;52.214;21.238;2023-09-12T07:53:53;100137.64;;;24.02;61.56
56582;BME280;42463;52.214;21.238;2023-09-12T07:56:01;100141.08;;;24.08;61.18
56582;BME280;42463;52.214;21.238;2023-09-12T07:58:07;100144.08;;;24.16;61.22
56582;BME280;42463;52.214;21.238;2023-09-12T08:00:15;100144.33;;;24.22;61.06
56582;BME280;42463;52.214;21.238;2023-09-12T08:02:21;100141.06;;;24.29;60.07
56582;BME280;42463;52.214;21.238;2023-09-12T08:04:27;100141.45;;;24.34;59.55
56582;BME280;42463;52.214;21.238;2023-09-12T08:06:33;100140.61;;;24.38;59.05
56582;BME280;42463;52.214;21.238;2023-09-12T08:08:39;100139.02;;;24.43;58.63
56582;BME280;42463;52.214;21.238;2023-09-12T08:10:45;100139.92;;;24.51;58.63
56582;BME280;42463;52.214;21.238;2023-09-12T08:12:51;100140.14;;;24.59;58.94
56582;BME280;42463;52.214;21.238;2023-09-12T08:14:57;100138.51;;;24.66;58.67
56582;BME280;42463;52.214;21.238;2023-09-12T08:17:05;100137.92;;;24.70;57.62
56582;BME280;42463;52.214;21.238;2023-09-12T08:19:11;100141.04;;;24.75;57.30
56582;BME280;42463;52.214;21.238;2023-09-12T08:21:17;100140.20;;;24.82;57.21
56582;BME280;42463;52.214;21.238;2023-09-12T08:23:23;100136.25;;;24.89;56.77
56582;BME280;42463;52.214;21.238;2023-09-12T08:25:29;100139.04;;;24.95;56.63
56582;BME280;42463;52.214;21.238;2023-09-12T08:27:35;100139.59;;;25.02;56.54
56582;BME280;42463;52.214;21.238;2023-09-12T08:29:41;100138.46;;;25.08;56.20
56582;BME280;42463;52.214;21.238;2023-09-12T08:31:49;100138.51;;;25.15;55.59
56582;BME280;42463;52.214;21.238;2023-09-12T08:33:55;100140.32;;;25.22;55.38
56582;BME280;42463;52.214;21.238;2023-09-12T08:36:01;100139.60;;;25.28;55.02
56582;BME280;42463;52.214;21.238;2023-09-12T08:38:07;100137.96;;;25.33;54.50
56582;BME280;42463;52.214;21.238;2023-09-12T08:40:14;100140.16;;;25.38;54.72
56582;BME280;42463;52.214;21.238;2023-09-12T08:42:20;100138.93;;;25.43;54.57
56582;BME280;42463;52.214;21.238;2023-09-12T08:44:26;100138.35;;;25.49;54.71
56582;BME280;42463;52.214;21.238;2023-09-12T08:46:32;100142.50;;;25.54;54.97
56582;BME280;42463;52.214;21.238;2023-09-12T08:48:39;100140.06;;;25.58;55.02
56582;BME280;42463;52.214;21.238;2023-09-12T08:50:48;100138.77;;;25.61;54.69
56582;BME280;42463;52.214;21.238;2023-09-12T08:52:54;100137.45;;;25.62;54.49
56582;BME280;42463;52.214;21.238;2023-09-12T08:55:00;100134.64;;;25.66;54.61
56582;BME280;42463;52.214;21.238;2023-09-12T08:57:07;100131.89;;;25.71;55.12
56582;BME280;42463;52.214;21.238;2023-09-12T08:59:16;100130.45;;;25.74;54.56
56582;BME280;42463;52.214;21.238;2023-09-12T09:01:23;100129.92;;;25.79;54.09
56582;BME280;42463;52.214;21.238;2023-09-12T09:03:32;100129.11;;;25.85;54.01
56582;BME280;42463;52.214;21.238;2023-09-12T09:05:38;100129.30;;;25.90;54.28
56582;BME280;42463;52.214;21.238;2023-09-12T09:07:45;100129.39;;;25.94;54.26
56582;BME280;42463;52.214;21.238;2023-09-12T09:09:52;100128.35;;;25.98;54.21
56582;BME280;42463;52.214;21.238;2023-09-12T09:11:58;100132.90;;;26.01;53.13
56582;BME280;42463;52.214;21.238;2023-09-12T09:14:04;100130.11;;;26.05;52.80
56582;BME280;42463;52.214;21.238;2023-09-12T09:16:14;100127.74;;;26.09;52.91
56582;BME280;42463;52.214;21.238;2023-09-12T09:18:21;100131.13;;;26.15;52.61
56582;BME280;42463;52.214;21.238;2023-09-12T09:20:29;100128.66;;;26.19;52.87
56582;BME280;42463;52.214;21.238;2023-09-12T09:22:35;100131.59;;;26.23;52.89
56582;BME280;42463;52.214;21.238;2023-09-12T09:24:42;100128.16;;;26.26;52.51
56582;BME280;42463;52.214;21.238;2023-09-12T09:26:48;100122.15;;;26.27;53.05
56582;BME280;42463;52.214;21.238;2023-09-12T09:29:06;100123.36;;;26.28;53.17
56582;BME280;42463;52.214;21.238;2023-09-12T09:31:13;100124.21;;;26.31;52.80
56582;BME280;42463;52.214;21.238;2023-09-12T09:33:19;100123.02;;;26.34;52.51
56582;BME280;42463;52.214;21.238;2023-09-12T09:35:26;100120.89;;;26.39;51.72
56582;BME280;42463;52.214;21.238;2023-09-12T09:37:32;100117.59;;;26.45;50.91
56582;BME280;42463;52.214;21.238;2023-09-12T09:39:38;100119.48;;;26.52;50.26
56582;BME280;42463;52.214;21.238;2023-09-12T09:41:48;100113.56;;;26.59;50.23
56582;BME280;42463;52.214;21.238;2023-09-12T09:43:54;100116.63;;;26.65;49.34
56582;BME280;42463;52.214;21.238;2023-09-12T09:46:01;100118.57;;;26.72;49.10
56582;BME280;42463;52.214;21.238;2023-09-12T09:48:08;100115.73;;;26.78;49.27
56582;BME280;42463;52.214;21.238;2023-09-12T09:50:17;100117.88;;;26.83;50.52
56582;BME280;42463;52.214;21.238;2023-09-12T09:52:27;100118.23;;;26.89;49.82
56582;BME280;42463;52.214;21.238;2023-09-12T09:54:34;100118.89;;;26.95;48.26
56582;BME280;42463;52.214;21.238;2023-09-12T09:56:47;100115.60;;;27.01;46.98
56582;BME280;42463;52.214;21.238;2023-09-12T09:58:54;100115.88;;;27.07;47.19
56582;BME280;42463;52.214;21.238;2023-09-12T10:01:01;100118.98;;;27.11;46.31
56582;BME280;42463;52.214;21.238;2023-09-12T10:03:09;100110.56;;;27.17;46.54
56582;BME280;42463;52.214;21.238;2023-09-12T10:05:18;100110.84;;;27.24;45.82
56582;BME280;42463;52.214;21.238;2023-09-12T10:07:24;100109.99;;;27.31;45.37
56582;BME280;42463;52.214;21.238;2023-09-12T10:09:31;100107.52;;;27.37;44.59
56582;BME280;42463;52.214;21.238;2023-09-12T10:11:39;100110.73;;;27.44;44.04
56582;BME280;42463;52.214;21.238;2023-09-12T10:13:49;100109.77;;;27.49;43.63
56582;BME280;42463;52.214;21.238;2023-09-12T10:15:56;100106.52;;;27.55;42.83
56582;BME280;42463;52.214;21.238;2023-09-12T10:18:09;100108.88;;;27.62;42.55
56582;BME280;42463;52.214;21.238;2023-09-12T10:20:19;100105.64;;;27.70;42.27
56582;BME280;42463;52.214;21.238;2023-09-12T10:22:30;100106.05;;;27.77;41.55
56582;BME280;42463;52.214;21.238;2023-09-12T10:24:39;100105.67;;;27.84;40.54
56582;BME280;42463;52.214;21.238;2023-09-12T10:26:46;100108.21;;;27.89;40.46
56582;BME280;42463;52.214;21.238;2023-09-12T10:28:53;100100.29;;;27.93;41.99
56582;BME280;42463;52.214;21.238;2023-09-12T10:31:02;100104.38;;;27.95;41.76
56582;BME280;42463;52.214;21.238;2023-09-12T10:33:12;100102.33;;;27.96;40.82
56582;BME280;42463;52.214;21.238;2023-09-12T10:35:19;100102.90;;;27.97;40.20
56582;BME280;42463;52.214;21.238;2023-09-12T10:37:26;100103.73;;;28.00;40.47
56582;BME280;42463;52.214;21.238;2023-09-12T10:39:34;100102.96;;;28.03;40.63
56582;BME280;42463;52.214;21.238;2023-09-12T10:41:41;100100.77;;;28.06;40.70
56582;BME280;42463;52.214;21.238;2023-09-12T10:43:48;100099.27;;;28.10;40.67
56582;BME280;42463;52.214;21.238;2023-09-12T10:45:57;100096.29;;;28.16;40.64
56582;BME280;42463;52.214;21.238;2023-09-12T10:48:05;100094.44;;;28.21;41.01
56582;BME280;42463;52.214;21.238;2023-09-12T10:50:11;100096.42;;;28.25;41.82
56582;BME280;42463;52.214;21.238;2023-09-12T10:52:26;100094.30;;;28.27;39.98
56582;BME280;42463;52.214;21.238;2023-09-12T10:54:39;100094.34;;;28.30;40.58
56582;BME280;42463;52.214;21.238;2023-09-12T10:56:45;100095.48;;;28.33;43.12